createdAt,value
2023-08-17T00:02:14.278Z,79.10
2023-08-17T00:04:43.339Z,79.90
2023-08-17T00:07:11.056Z,80.10
2023-08-17T00:09:38.776Z,79.90
2023-08-17T00:12:06.867Z,79.90
2023-08-17T00:14:34.599Z,80.10
2023-08-17T00:17:04.194Z,80.10
2023-08-17T00:19:31.938Z,80.30
2023-08-17T00:22:01.316Z,80.60
2023-08-17T00:24:29.357Z,80.70
2023-08-17T00:26:57.099Z,80.50
2023-08-17T00:29:24.821Z,80.30
2023-08-17T00:31:53.233Z,80.50
2023-08-17T00:37:19.473Z,80.00
2023-08-17T00:39:47.222Z,80.00
2023-08-17T00:42:14.957Z,79.90
2023-08-17T00:44:42.675Z,80.00
2023-08-17T00:47:10.476Z,80.40
2023-08-17T00:49:38.264Z,80.60
2023-08-17T00:52:06.849Z,79.60
2023-08-17T00:54:35.902Z,80.10
2023-08-17T00:57:07.421Z,80.00
2023-08-17T00:59:37.027Z,80.20
2023-08-17T01:02:05.403Z,79.60
2023-08-17T01:04:33.631Z,79.80
2023-08-17T01:07:01.658Z,79.30
2023-08-17T01:09:29.485Z,79.70
2023-08-17T01:12:02.501Z,80.00
2023-08-17T01:14:33.088Z,80.00
2023-08-17T01:17:05.793Z,80.30
2023-08-17T01:19:33.822Z,80.40
2023-08-17T01:22:04.099Z,80.20
2023-08-17T01:24:33.477Z,80.50
2023-08-17T01:27:01.318Z,80.10
2023-08-17T01:29:29.243Z,80.70
2023-08-17T01:32:06.159Z,80.60
2023-08-17T01:34:35.412Z,81.20
2023-08-17T01:37:04.081Z,81.20
2023-08-17T01:39:36.969Z,80.70
2023-08-17T01:42:05.770Z,81.30
2023-08-17T01:44:33.818Z,81.50
2023-08-17T01:47:01.549Z,80.90
2023-08-17T01:49:29.255Z,81.00
2023-08-17T01:51:56.972Z,80.90
2023-08-17T01:54:25.195Z,80.80
2023-08-17T01:56:54.311Z,81.40
2023-08-17T01:59:22.035Z,81.70
2023-08-17T02:01:49.759Z,81.20
2023-08-17T02:04:18.110Z,81.60
2023-08-17T02:06:45.812Z,81.90
2023-08-17T02:09:13.536Z,81.60
2023-08-17T02:11:41.252Z,81.70
2023-08-17T02:14:10.300Z,81.10
2023-08-17T02:16:38.061Z,81.10
2023-08-17T02:19:05.864Z,80.90
2023-08-17T02:21:33.573Z,81.50
2023-08-17T02:24:01.273Z,80.90
2023-08-17T02:26:29.119Z,81.30
2023-08-17T02:28:56.804Z,81.20
2023-08-17T02:31:25.861Z,81.30
2023-08-17T02:33:53.640Z,81.20
2023-08-17T02:36:21.314Z,81.70
2023-08-17T02:38:48.993Z,81.70
2023-08-17T02:41:16.702Z,81.40
2023-08-17T02:43:44.426Z,81.60
2023-08-17T02:46:12.137Z,80.60
2023-08-17T02:48:41.272Z,80.80
2023-08-17T02:51:08.954Z,80.60
2023-08-17T02:53:37.124Z,80.20
2023-08-17T02:56:04.996Z,80.30
2023-08-17T02:58:32.687Z,80.20
2023-08-17T03:01:00.595Z,80.60
2023-08-17T03:03:28.362Z,80.30
2023-08-17T03:05:57.455Z,80.60
2023-08-17T03:08:25.258Z,80.30
2023-08-17T03:10:52.962Z,80.30
2023-08-17T03:13:20.707Z,80.30
2023-08-17T03:15:48.398Z,80.20
2023-08-17T03:18:16.095Z,80.50
2023-08-17T03:20:43.924Z,80.70
2023-08-17T03:23:12.997Z,80.80
2023-08-17T03:25:40.726Z,80.40
2023-08-17T03:28:08.455Z,80.30
2023-08-17T03:30:36.471Z,80.40
2023-08-17T03:33:04.502Z,80.50
2023-08-17T03:35:32.277Z,80.70
2023-08-17T03:37:59.982Z,81.00
2023-08-17T03:40:29.106Z,80.90
2023-08-17T03:42:56.838Z,80.70
2023-08-17T03:45:24.535Z,80.70
2023-08-17T03:47:52.283Z,80.30
2023-08-17T03:50:20.197Z,80.60
2023-08-17T03:52:47.885Z,80.70
2023-08-17T03:55:15.581Z,81.40
2023-08-17T03:57:44.655Z,81.20
2023-08-17T04:00:13.054Z,80.60
2023-08-17T04:02:40.865Z,80.90
2023-08-17T04:05:08.979Z,80.80
2023-08-17T04:07:36.714Z,81.20
2023-08-17T04:10:04.560Z,81.50
2023-08-17T04:12:32.525Z,81.70
2023-08-17T04:15:01.745Z,81.30
2023-08-17T04:17:29.669Z,81.50
2023-08-17T04:19:57.648Z,81.70
2023-08-17T04:22:25.374Z,81.60
2023-08-17T04:24:53.069Z,81.10
2023-08-17T04:27:20.903Z,81.40
2023-08-17T04:29:48.620Z,81.80
2023-08-17T04:32:18.263Z,81.40
2023-08-17T04:34:47.283Z,81.40
2023-08-17T04:37:14.968Z,81.60
2023-08-17T04:39:44.653Z,81.10
2023-08-17T04:42:12.547Z,81.20
2023-08-17T04:44:40.316Z,81.30
2023-08-17T04:47:08.015Z,82.10
2023-08-17T04:49:37.406Z,82.30
2023-08-17T04:52:05.622Z,82.60
2023-08-17T04:54:33.341Z,82.60
2023-08-17T04:57:01.431Z,83.10
2023-08-17T04:59:29.299Z,84.00
2023-08-17T05:01:57.239Z,84.40
2023-08-17T05:04:25.178Z,84.90
2023-08-17T05:06:54.436Z,85.10
2023-08-17T05:09:22.354Z,85.50
2023-08-17T05:11:50.469Z,86.00
2023-08-17T05:14:18.586Z,86.10
2023-08-17T05:16:46.455Z,86.30
2023-08-17T05:22:15.272Z,87.70
2023-08-17T05:24:43.180Z,88.00
2023-08-17T05:27:12.203Z,88.00
2023-08-17T05:29:40.146Z,87.70
2023-08-17T05:32:08.163Z,88.00
2023-08-17T05:34:36.065Z,88.30
2023-08-17T05:37:04.077Z,88.60
2023-08-17T05:39:34.233Z,88.70
2023-08-17T05:42:03.968Z,88.70
2023-08-17T05:44:31.968Z,88.60
2023-08-17T05:46:59.823Z,88.70
2023-08-17T05:49:27.774Z,88.60
2023-08-17T05:51:55.920Z,88.80
2023-08-17T05:54:23.822Z,88.90
2023-08-17T05:56:53.041Z,89.10
2023-08-17T05:59:21.028Z,89.00
2023-08-17T06:01:49.182Z,89.00
2023-08-17T06:04:17.331Z,88.80
2023-08-17T06:06:45.222Z,88.80
2023-08-17T06:09:13.151Z,89.10
2023-08-17T06:11:41.261Z,89.10
2023-08-17T06:14:10.586Z,88.70
2023-08-17T06:16:38.514Z,88.90
2023-08-17T06:19:06.651Z,88.80
2023-08-17T06:21:34.775Z,88.80
2023-08-17T06:24:02.632Z,89.00
2023-08-17T06:26:30.680Z,88.40
2023-08-17T06:28:58.612Z,88.10
2023-08-17T06:31:28.670Z,88.40
2023-08-17T06:33:56.860Z,88.50
2023-08-17T06:36:24.842Z,87.40
2023-08-17T06:38:52.747Z,87.70
2023-08-17T06:41:20.914Z,87.80
2023-08-17T06:43:48.815Z,87.30
2023-08-17T06:46:16.788Z,87.50
2023-08-17T06:48:46.684Z,87.00
2023-08-17T06:51:14.566Z,86.60
2023-08-17T06:53:43.364Z,87.30
2023-08-17T06:56:11.968Z,86.40
2023-08-17T06:58:39.857Z,85.50
2023-08-17T07:01:08.041Z,85.90
2023-08-17T07:03:36.138Z,86.30
2023-08-17T07:06:05.386Z,85.70
2023-08-17T07:08:34.035Z,84.70
2023-08-17T07:11:01.844Z,85.10
2023-08-17T07:13:29.722Z,85.20
2023-08-17T07:15:57.861Z,84.70
2023-08-17T07:18:26.644Z,83.50
2023-08-17T07:20:56.627Z,83.70
2023-08-17T07:23:27.347Z,83.00
2023-08-17T07:25:55.074Z,82.40
2023-08-17T07:28:22.781Z,83.00
2023-08-17T07:30:53.149Z,83.10
2023-08-17T07:33:20.859Z,82.60
2023-08-17T07:35:48.665Z,82.70
2023-08-17T07:38:16.502Z,81.30
2023-08-17T07:40:45.854Z,81.70
2023-08-17T07:43:13.752Z,81.10
2023-08-17T07:45:41.672Z,81.50
2023-08-17T07:48:09.504Z,82.20
2023-08-17T07:50:37.370Z,81.00
2023-08-17T07:53:05.503Z,82.20
2023-08-17T07:58:03.289Z,81.80
2023-08-17T08:00:31.365Z,81.80
2023-08-17T08:02:59.400Z,81.70
2023-08-17T08:05:28.380Z,82.60
2023-08-17T08:07:56.347Z,82.60
2023-08-17T08:10:24.108Z,82.80
2023-08-17T08:12:51.822Z,83.40
2023-08-17T08:15:20.995Z,83.70
2023-08-17T08:17:48.781Z,82.40
2023-08-17T08:20:16.637Z,82.60
2023-08-17T08:22:44.400Z,83.30
2023-08-17T08:25:12.415Z,83.60
2023-08-17T08:27:40.311Z,83.80
2023-08-17T08:30:08.972Z,84.00
2023-08-17T08:32:38.112Z,84.00
2023-08-17T08:35:07.016Z,83.90
2023-08-17T08:37:34.909Z,84.00
2023-08-17T08:40:02.844Z,84.70
2023-08-17T08:42:30.929Z,84.30
2023-08-17T08:44:58.927Z,84.80
2023-08-17T08:47:28.356Z,85.30
2023-08-17T08:50:02.618Z,85.50
2023-08-17T08:52:35.971Z,85.60
2023-08-17T08:55:13.279Z,85.60
2023-08-17T08:57:42.793Z,85.40
2023-08-17T09:00:13.616Z,84.60
2023-08-17T09:02:41.711Z,84.60
2023-08-17T09:05:12.947Z,84.30
2023-08-17T09:07:41.417Z,84.20
2023-08-17T09:10:12.310Z,84.30
2023-08-17T09:12:42.176Z,84.10
2023-08-17T09:15:11.200Z,83.50
2023-08-17T09:17:39.932Z,83.60
2023-08-17T09:20:10.380Z,83.40
2023-08-17T09:22:43.687Z,84.20
2023-08-17T09:25:13.033Z,83.00
2023-08-17T09:27:42.329Z,83.80
2023-08-17T09:30:12.817Z,82.90
2023-08-17T09:32:41.038Z,82.90
2023-08-17T09:35:10.245Z,82.80
2023-08-17T09:37:38.375Z,83.30
2023-08-17T09:40:09.872Z,82.90
2023-08-17T09:42:38.081Z,81.60
2023-08-17T09:45:07.426Z,82.00
2023-08-17T09:47:35.269Z,82.10
2023-08-17T09:50:03.557Z,81.10
2023-08-17T09:52:31.311Z,81.20
2023-08-17T09:55:08.052Z,81.20
2023-08-17T09:57:38.121Z,82.40
2023-08-17T10:00:07.991Z,81.70
2023-08-17T10:02:35.829Z,82.00
2023-08-17T10:05:05.872Z,81.30
2023-08-17T10:07:35.534Z,81.30
2023-08-17T10:10:04.825Z,81.10
2023-08-17T10:12:35.007Z,80.20
2023-08-17T10:15:08.162Z,80.60
2023-08-17T10:17:41.650Z,80.60
2023-08-17T10:20:10.301Z,80.40
2023-08-17T10:22:44.063Z,80.40
2023-08-17T10:25:14.657Z,80.60
2023-08-17T10:27:42.656Z,80.50
2023-08-17T10:30:12.382Z,81.00
2023-08-17T10:32:42.514Z,80.30
2023-08-17T10:35:10.353Z,80.60
2023-08-17T10:37:39.285Z,80.70
2023-08-17T10:40:08.386Z,80.70
2023-08-17T10:42:37.387Z,81.00
2023-08-17T10:45:20.322Z,81.50
2023-08-17T10:47:49.912Z,80.60
2023-08-17T10:50:22.586Z,81.40
2023-08-17T10:52:51.072Z,80.80
2023-08-17T10:55:19.995Z,80.60
2023-08-17T10:57:47.854Z,80.90
2023-08-17T11:02:53.752Z,81.50
2023-08-17T11:05:36.096Z,82.00
2023-08-17T11:08:03.840Z,82.20
2023-08-17T11:10:32.247Z,82.40
2023-08-17T11:13:02.052Z,82.60
2023-08-17T11:15:38.815Z,82.50
2023-08-17T11:18:10.194Z,82.10
2023-08-17T11:20:39.057Z,82.10
2023-08-17T11:23:06.969Z,81.70
2023-08-17T11:25:35.351Z,81.60
2023-08-17T11:28:03.449Z,81.70
2023-08-17T11:30:31.307Z,82.20
2023-08-17T11:32:59.335Z,81.80
2023-08-17T11:35:28.707Z,82.20
2023-08-17T11:37:56.534Z,81.60
2023-08-17T11:40:24.854Z,81.70
2023-08-17T11:42:52.589Z,81.60
2023-08-17T11:45:20.984Z,82.00
2023-08-17T11:47:49.240Z,81.80
2023-08-17T11:50:21.137Z,82.40
2023-08-17T11:52:50.832Z,82.80
2023-08-17T11:55:20.111Z,82.80
2023-08-17T11:57:48.068Z,82.30
2023-08-17T12:00:19.814Z,82.00
2023-08-17T12:02:49.151Z,81.90
2023-08-17T12:05:20.948Z,81.80
2023-08-17T12:07:48.824Z,82.40
2023-08-17T12:10:19.356Z,81.90
2023-08-17T12:12:48.515Z,81.80
2023-08-17T12:15:16.285Z,82.40
2023-08-17T12:17:47.050Z,82.40
2023-08-17T12:20:18.455Z,81.80
2023-08-17T12:22:46.280Z,81.30
2023-08-17T12:25:14.379Z,81.70
2023-08-17T12:27:43.606Z,81.50
2023-08-17T12:30:15.251Z,81.70
2023-08-17T12:32:42.945Z,82.00
2023-08-17T12:35:10.662Z,82.00
2023-08-17T12:37:38.373Z,81.90
2023-08-17T12:40:06.304Z,81.30
2023-08-17T12:42:34.160Z,81.40
2023-08-17T12:45:05.774Z,80.40
2023-08-17T12:47:35.534Z,81.30
2023-08-17T12:50:04.600Z,80.80
2023-08-17T12:52:32.544Z,80.60
2023-08-17T12:55:00.318Z,81.00
2023-08-17T12:57:28.777Z,80.70
2023-08-17T12:59:58.715Z,80.80
2023-08-17T13:02:27.971Z,80.80
2023-08-17T13:04:55.897Z,80.60
2023-08-17T13:07:23.824Z,80.00
2023-08-17T13:09:51.567Z,80.10
2023-08-17T13:12:19.421Z,80.30
2023-08-17T13:14:47.301Z,80.10
2023-08-17T13:17:17.665Z,80.30
2023-08-17T13:19:46.922Z,80.00
2023-08-17T13:22:15.115Z,79.40
2023-08-17T13:24:43.073Z,79.00
2023-08-17T13:27:10.937Z,79.40
2023-08-17T13:29:40.071Z,79.20
2023-08-17T13:32:08.210Z,79.80
2023-08-17T13:34:36.126Z,78.00
2023-08-17T13:37:05.703Z,77.20
2023-08-17T13:39:33.451Z,78.60
2023-08-17T13:42:01.286Z,78.70
2023-08-17T13:44:29.027Z,78.90
2023-08-17T13:46:56.720Z,78.30
2023-08-17T13:49:24.425Z,77.70
2023-08-17T13:51:52.112Z,76.80
2023-08-17T13:54:21.952Z,77.10
2023-08-17T13:56:49.844Z,77.10
2023-08-17T13:59:18.064Z,77.60
2023-08-17T14:01:45.831Z,78.50
2023-08-17T14:04:15.257Z,78.50
2023-08-17T14:07:19.959Z,77.70
2023-08-17T14:10:01.819Z,78.10
2023-08-17T14:12:35.946Z,77.20
2023-08-17T14:15:03.888Z,76.90
2023-08-17T14:17:31.810Z,77.10
2023-08-17T14:19:59.779Z,77.50
2023-08-17T14:22:28.286Z,78.00
2023-08-17T14:24:57.884Z,77.30
2023-08-17T14:27:25.592Z,77.80
2023-08-17T14:29:53.355Z,77.40
2023-08-17T14:32:21.055Z,78.60
2023-08-17T14:34:48.749Z,77.30
2023-08-17T14:37:16.428Z,77.30
2023-08-17T14:39:44.425Z,77.30
2023-08-17T14:42:13.469Z,78.10
2023-08-17T14:44:41.147Z,77.40
2023-08-17T14:47:08.861Z,78.40
2023-08-17T14:49:36.538Z,77.00
2023-08-17T14:52:04.315Z,78.10
2023-08-17T14:54:33.377Z,78.00
2023-08-17T14:57:01.316Z,76.60
2023-08-17T14:59:30.395Z,77.30
2023-08-17T15:01:58.185Z,77.50
2023-08-17T15:04:26.483Z,77.50
2023-08-17T15:06:54.357Z,77.60
2023-08-17T15:09:22.073Z,78.30
2023-08-17T15:11:51.736Z,78.60
2023-08-17T15:14:19.462Z,79.00
2023-08-17T15:16:48.508Z,79.10
2023-08-17T15:19:24.022Z,79.00
2023-08-17T15:21:58.630Z,79.10
2023-08-17T15:24:26.336Z,78.40
2023-08-17T15:26:54.074Z,79.40
2023-08-17T15:29:22.524Z,78.90
2023-08-17T15:31:52.589Z,79.10
2023-08-17T15:34:20.345Z,79.10
2023-08-17T15:36:48.302Z,79.10
2023-08-17T15:39:16.021Z,78.80
2023-08-17T15:41:43.737Z,79.50
2023-08-17T15:44:11.601Z,78.90
2023-08-17T15:46:39.352Z,79.20
2023-08-17T15:49:08.452Z,79.30
2023-08-17T15:51:36.163Z,79.50
2023-08-17T15:54:03.868Z,79.70
2023-08-17T15:56:31.701Z,79.40
2023-08-17T15:58:59.456Z,79.90
2023-08-17T16:01:27.210Z,79.80
2023-08-17T16:03:54.937Z,79.90
2023-08-17T16:06:24.137Z,79.80
2023-08-17T16:08:52.752Z,79.60
2023-08-17T16:11:20.455Z,79.60
2023-08-17T16:13:48.252Z,79.60
2023-08-17T16:16:15.983Z,79.50
2023-08-17T16:18:43.763Z,80.00
2023-08-17T16:23:44.430Z,79.80
2023-08-17T16:26:12.154Z,80.20
2023-08-17T16:28:39.850Z,80.20
2023-08-17T16:31:07.609Z,80.80
2023-08-17T16:33:35.341Z,80.70
2023-08-17T16:36:03.224Z,80.80
2023-08-17T16:38:30.953Z,80.70
2023-08-17T16:41:00.250Z,80.20
2023-08-17T16:43:28.223Z,80.60
2023-08-17T16:45:56.000Z,80.70
2023-08-17T16:48:25.267Z,80.40
2023-08-17T16:50:53.417Z,80.50
2023-08-17T16:53:21.644Z,80.50
2023-08-17T16:55:55.171Z,79.90
2023-08-17T16:58:24.750Z,80.00
2023-08-17T17:00:52.807Z,80.10
2023-08-17T17:03:20.588Z,80.80
2023-08-17T17:05:48.316Z,80.30
2023-08-17T17:08:16.012Z,80.40
2023-08-17T17:10:43.722Z,80.40
2023-08-17T17:13:11.473Z,80.20
2023-08-17T17:15:40.684Z,80.50
2023-08-17T17:18:09.507Z,80.80
2023-08-17T17:20:37.315Z,80.60
2023-08-17T17:23:05.163Z,80.40
2023-08-17T17:25:32.880Z,80.20
2023-08-17T17:28:00.652Z,80.30
2023-08-17T17:30:28.376Z,80.20
2023-08-17T17:32:57.545Z,80.30
2023-08-17T17:35:25.284Z,80.30
2023-08-17T17:37:52.998Z,80.80
2023-08-17T17:40:20.704Z,80.90
2023-08-17T17:42:48.422Z,80.80
2023-08-17T17:45:16.134Z,80.80
2023-08-17T17:47:43.913Z,80.80
2023-08-17T17:50:13.332Z,80.60
2023-08-17T17:52:41.072Z,80.50
2023-08-17T17:55:10.135Z,80.50
2023-08-17T17:57:38.673Z,80.40
2023-08-17T18:00:07.154Z,80.50
2023-08-17T18:02:35.428Z,80.70
2023-08-17T18:05:03.184Z,80.80
2023-08-17T18:07:32.296Z,81.20
2023-08-17T18:10:01.559Z,80.90
2023-08-17T18:12:31.228Z,80.80
2023-08-17T18:14:58.940Z,81.10
2023-08-17T18:17:26.826Z,81.20
2023-08-17T18:19:54.826Z,81.40
2023-08-17T18:22:22.534Z,81.40
2023-08-17T18:24:53.440Z,81.20
2023-08-17T18:27:21.355Z,81.30
2023-08-17T18:29:49.409Z,81.30
2023-08-17T18:32:17.128Z,81.50
2023-08-17T18:34:44.828Z,81.60
2023-08-17T18:37:12.830Z,81.90
2023-08-17T18:39:40.745Z,82.20
2023-08-17T18:42:09.803Z,81.70
2023-08-17T18:44:37.494Z,82.00
2023-08-17T18:47:05.324Z,82.00
2023-08-17T18:49:33.079Z,82.10
2023-08-17T18:52:00.798Z,82.30
2023-08-17T18:54:28.504Z,82.80
2023-08-17T18:56:56.680Z,82.70
2023-08-17T18:59:25.975Z,82.60
2023-08-17T19:01:53.912Z,82.80
2023-08-17T19:04:21.824Z,82.70
2023-08-17T19:06:49.765Z,83.10
2023-08-17T19:09:17.861Z,83.10
2023-08-17T19:11:46.214Z,83.10
2023-08-17T19:14:14.103Z,83.10
2023-08-17T19:16:43.461Z,83.30
2023-08-17T19:19:12.203Z,83.10
2023-08-17T19:21:40.141Z,83.20
2023-08-17T19:24:08.367Z,83.50
2023-08-17T19:26:36.227Z,83.30
2023-08-17T19:29:04.458Z,83.20
2023-08-17T19:31:33.077Z,83.20
2023-08-17T19:34:02.383Z,83.30
2023-08-17T19:36:30.344Z,83.10
2023-08-17T19:38:58.221Z,83.20
2023-08-17T19:41:26.102Z,83.40
2023-08-17T19:43:53.997Z,83.50
2023-08-17T19:46:21.958Z,83.50
2023-08-17T19:48:50.751Z,83.40
2023-08-17T19:51:20.005Z,83.30
2023-08-17T19:53:48.121Z,83.50
2023-08-17T19:56:16.192Z,83.50
2023-08-17T19:58:44.050Z,83.60
2023-08-17T20:01:12.988Z,83.70
2023-08-17T20:03:41.394Z,83.80
2023-08-17T20:06:10.225Z,83.80
2023-08-17T20:08:39.794Z,83.80
2023-08-17T20:11:11.039Z,83.80
2023-08-17T20:13:38.959Z,83.80
2023-08-17T20:16:06.701Z,83.70
2023-08-17T20:18:34.735Z,83.80
2023-08-17T20:21:04.323Z,84.10
2023-08-17T20:23:32.589Z,84.30
2023-08-17T20:26:02.044Z,84.50
2023-08-17T20:28:29.812Z,84.70
2023-08-17T20:30:58.338Z,84.70
2023-08-17T20:33:26.578Z,84.90
2023-08-17T20:35:54.779Z,85.10
2023-08-17T20:38:22.617Z,84.80
2023-08-17T20:40:50.352Z,84.90
2023-08-17T20:43:19.556Z,84.90
2023-08-17T20:45:47.278Z,84.90
2023-08-17T20:48:15.008Z,84.90
2023-08-17T20:50:45.131Z,84.90
2023-08-17T20:53:13.176Z,85.00
2023-08-17T20:55:41.735Z,85.10
2023-08-17T20:58:09.666Z,85.10
2023-08-17T21:00:38.828Z,85.10
2023-08-17T21:03:07.226Z,84.90
2023-08-17T21:05:35.080Z,85.00
2023-08-17T21:08:04.895Z,85.00
2023-08-17T21:10:33.039Z,85.20
2023-08-17T21:13:00.915Z,85.10
2023-08-17T21:15:28.738Z,85.10
2023-08-17T21:17:58.152Z,85.10
2023-08-17T21:20:25.890Z,85.10
2023-08-17T21:22:54.859Z,85.20
2023-08-17T21:25:22.561Z,85.20
2023-08-17T21:27:50.270Z,85.10
2023-08-17T21:30:18.311Z,85.20
2023-08-17T21:32:46.042Z,85.40
2023-08-17T21:35:15.107Z,85.50
2023-08-17T21:37:44.148Z,85.50
2023-08-17T21:40:12.563Z,85.60
2023-08-17T21:42:40.255Z,85.50
2023-08-17T21:45:08.604Z,85.30
2023-08-17T21:47:36.396Z,85.50
2023-08-17T21:50:04.269Z,85.70
2023-08-17T21:52:35.052Z,85.90
2023-08-17T21:55:02.803Z,85.80
2023-08-17T21:57:30.912Z,85.80
2023-08-17T21:59:58.841Z,85.60
2023-08-17T22:02:26.631Z,85.80
2023-08-17T22:04:54.360Z,85.80
2023-08-17T22:07:22.067Z,86.00
2023-08-17T22:09:51.132Z,85.80
2023-08-17T22:12:18.816Z,85.90
2023-08-17T22:14:46.509Z,86.00
2023-08-17T22:17:14.280Z,85.70
2023-08-17T22:19:41.985Z,85.80
2023-08-17T22:22:09.690Z,86.00
2023-08-17T22:24:51.028Z,86.00
2023-08-17T22:27:21.192Z,86.10
2023-08-17T22:29:48.913Z,86.10
2023-08-17T22:32:16.699Z,86.10
2023-08-17T22:34:44.408Z,86.10
2023-08-17T22:37:12.188Z,86.20
2023-08-17T22:39:39.870Z,86.10
2023-08-17T22:42:07.611Z,86.20
2023-08-17T22:44:36.758Z,86.40
2023-08-17T22:47:05.667Z,86.60
2023-08-17T22:49:33.370Z,86.60
2023-08-17T22:52:01.514Z,86.40
2023-08-17T22:54:29.268Z,86.70
2023-08-17T22:56:57.449Z,86.80
2023-08-17T22:59:25.214Z,86.50
2023-08-17T23:01:54.516Z,86.50
2023-08-17T23:04:22.498Z,86.40
2023-08-17T23:06:50.923Z,86.70
2023-08-17T23:09:18.681Z,86.70
2023-08-17T23:11:47.306Z,86.60
2023-08-17T23:14:15.042Z,86.80
2023-08-17T23:16:42.859Z,87.00
2023-08-17T23:19:11.899Z,86.90
2023-08-17T23:21:39.799Z,87.00
2023-08-17T23:24:07.748Z,87.00
2023-08-17T23:26:35.516Z,87.20
2023-08-17T23:29:03.228Z,87.20
2023-08-17T23:31:30.948Z,87.40
2023-08-17T23:33:58.711Z,87.20
2023-08-17T23:36:27.794Z,87.20
2023-08-17T23:38:55.533Z,87.30
2023-08-17T23:41:23.250Z,87.50
2023-08-17T23:43:50.975Z,87.60
2023-08-17T23:46:18.681Z,87.80
2023-08-17T23:48:46.411Z,88.00
2023-08-17T23:51:14.105Z,88.10
2023-08-17T23:53:43.391Z,88.00
2023-08-17T23:56:11.084Z,88.10
2023-08-17T23:58:38.820Z,88.00
